sensor_id;sensor_type;location;lat;lon;timestamp;temperature;humidity
36212;DHT22;22247;48.586;13.492;2023-08-12T00:18:19;14.70;99.90
36212;DHT22;22247;48.586;13.492;2023-08-12T00:20:46;14.10;99.90
36212;DHT22;22247;48.586;13.492;2023-08-12T00:25:35;14.70;99.90
36212;DHT22;22247;48.586;13.492;2023-08-12T00:30:27;14.50;99.90
36212;DHT22;22247;48.586;13.492;2023-08-12T00:32:52;14.20;99.90
36212;DHT22;22247;48.586;13.492;2023-08-12T00:35:18;14.40;99.90
36212;DHT22;22247;48.586;13.492;2023-08-12T00:40:08;15.20;99.90
36212;DHT22;22247;48.586;13.492;2023-08-12T00:42:33;13.80;99.90
36212;DHT22;22247;48.586;13.492;2023-08-12T00:44:57;13.80;99.90
36212;DHT22;22247;48.586;13.492;2023-08-12T00:49:47;13.60;99.90
36212;DHT22;22247;48.586;13.492;2023-08-12T00:52:15;13.60;99.90
36212;DHT22;22247;48.586;13.492;2023-08-12T00:54:42;13.30;99.90
36212;DHT22;22247;48.586;13.492;2023-08-12T00:57:06;13.30;99.90
36212;DHT22;22247;48.586;13.492;2023-08-12T00:59:32;13.80;99.90
36212;DHT22;22247;48.586;13.492;2023-08-12T01:01:59;13.30;99.90
36212;DHT22;22247;48.586;13.492;2023-08-12T01:04:23;13.80;99.90
36212;DHT22;22247;48.586;13.492;2023-08-12T01:06:48;13.60;99.90
36212;DHT22;22247;48.586;13.492;2023-08-12T01:09:13;13.50;99.90
36212;DHT22;22247;48.586;13.492;2023-08-12T01:12:05;13.40;99.90
36212;DHT22;22247;48.586;13.492;2023-08-12T01:14:55;13.50;99.90
36212;DHT22;22247;48.586;13.492;2023-08-12T01:17:21;13.10;99.90
36212;DHT22;22247;48.586;13.492;2023-08-12T01:19:47;13.60;99.90
36212;DHT22;22247;48.586;13.492;2023-08-12T01:22:12;13.40;99.90
36212;DHT22;22247;48.586;13.492;2023-08-12T01:27:01;13.60;99.90
36212;DHT22;22247;48.586;13.492;2023-08-12T01:29:26;13.10;99.90
36212;DHT22;22247;48.586;13.492;2023-08-12T01:35:13;12.90;99.90
36212;DHT22;22247;48.586;13.492;2023-08-12T01:37:43;13.10;99.90
36212;DHT22;22247;48.586;13.492;2023-08-12T01:40:09;12.90;99.90
36212;DHT22;22247;48.586;13.492;2023-08-12T01:47:28;13.80;99.90
36212;DHT22;22247;48.586;13.492;2023-08-12T01:49:53;13.30;99.90
36212;DHT22;22247;48.586;13.492;2023-08-12T01:52:21;13.00;99.90
36212;DHT22;22247;48.586;13.492;2023-08-12T01:54:47;13.40;99.90
36212;DHT22;22247;48.586;13.492;2023-08-12T01:57:12;13.00;99.90
36212;DHT22;22247;48.586;13.492;2023-08-12T01:59:39;12.80;99.90
36212;DHT22;22247;48.586;13.492;2023-08-12T02:02:04;13.40;99.90
36212;DHT22;22247;48.586;13.492;2023-08-12T02:04:29;12.60;99.90
36212;DHT22;22247;48.586;13.492;2023-08-12T02:06:54;12.90;99.90
36212;DHT22;22247;48.586;13.492;2023-08-12T02:09:19;12.80;99.90
36212;DHT22;22247;48.586;13.492;2023-08-12T02:11:43;12.60;99.90
36212;DHT22;22247;48.586;13.492;2023-08-12T02:16:35;13.30;99.90
36212;DHT22;22247;48.586;13.492;2023-08-12T02:18:59;12.60;99.90
36212;DHT22;22247;48.586;13.492;2023-08-12T02:23:51;12.90;99.90
36212;DHT22;22247;48.586;13.492;2023-08-12T02:26:16;12.30;99.90
36212;DHT22;22247;48.586;13.492;2023-08-12T02:28:40;12.80;99.90
36212;DHT22;22247;48.586;13.492;2023-08-12T02:31:05;13.00;99.90
36212;DHT22;22247;48.586;13.492;2023-08-12T02:33:30;12.70;99.90
36212;DHT22;22247;48.586;13.492;2023-08-12T02:35:54;12.90;99.90
36212;DHT22;22247;48.586;13.492;2023-08-12T02:38:19;12.90;99.90
36212;DHT22;22247;48.586;13.492;2023-08-12T02:40:43;12.70;99.90
36212;DHT22;22247;48.586;13.492;2023-08-12T02:43:11;12.30;99.90
36212;DHT22;22247;48.586;13.492;2023-08-12T02:45:36;13.30;99.90
36212;DHT22;22247;48.586;13.492;2023-08-12T02:48:01;12.90;99.90
36212;DHT22;22247;48.586;13.492;2023-08-12T02:55:16;13.10;99.90
36212;DHT22;22247;48.586;13.492;2023-08-12T02:57:40;13.50;99.90
36212;DHT22;22247;48.586;13.492;2023-08-12T03:00:05;12.50;99.90
36212;DHT22;22247;48.586;13.492;2023-08-12T03:02:29;12.50;99.90
36212;DHT22;22247;48.586;13.492;2023-08-12T03:04:54;12.40;99.90
36212;DHT22;22247;48.586;13.492;2023-08-12T03:07:19;11.90;99.90
36212;DHT22;22247;48.586;13.492;2023-08-12T03:09:43;12.00;99.90
36212;DHT22;22247;48.586;13.492;2023-08-12T03:12:08;12.60;99.90
36212;DHT22;22247;48.586;13.492;2023-08-12T03:16:57;12.80;99.90
36212;DHT22;22247;48.586;13.492;2023-08-12T03:19:24;12.10;99.90
36212;DHT22;22247;48.586;13.492;2023-08-12T03:21:49;12.10;99.90
36212;DHT22;22247;48.586;13.492;2023-08-12T03:24:13;12.40;99.90
36212;DHT22;22247;48.586;13.492;2023-08-12T03:26:38;12.80;99.90
36212;DHT22;22247;48.586;13.492;2023-08-12T03:29:02;12.00;99.90
36212;DHT22;22247;48.586;13.492;2023-08-12T03:31:31;11.90;99.90
36212;DHT22;22247;48.586;13.492;2023-08-12T03:36:21;12.30;99.90
36212;DHT22;22247;48.586;13.492;2023-08-12T03:38:45;12.20;99.90
36212;DHT22;22247;48.586;13.492;2023-08-12T03:41:10;12.20;99.90
36212;DHT22;22247;48.586;13.492;2023-08-12T03:43:35;12.10;99.90
36212;DHT22;22247;48.586;13.492;2023-08-12T03:46:04;12.30;99.90
36212;DHT22;22247;48.586;13.492;2023-08-12T03:48:29;12.40;99.90
36212;DHT22;22247;48.586;13.492;2023-08-12T03:50:53;11.60;99.90
36212;DHT22;22247;48.586;13.492;2023-08-12T03:53:20;11.90;99.90
36212;DHT22;22247;48.586;13.492;2023-08-12T03:58:12;11.80;99.90
36212;DHT22;22247;48.586;13.492;2023-08-12T04:00:43;12.30;99.90
36212;DHT22;22247;48.586;13.492;2023-08-12T04:03:08;12.00;99.90
36212;DHT22;22247;48.586;13.492;2023-08-12T04:05:35;12.00;99.90
36212;DHT22;22247;48.586;13.492;2023-08-12T04:08:00;12.20;99.90
36212;DHT22;22247;48.586;13.492;2023-08-12T04:10:24;11.90;99.90
36212;DHT22;22247;48.586;13.492;2023-08-12T04:12:51;11.80;99.90
36212;DHT22;22247;48.586;13.492;2023-08-12T04:15:18;12.20;99.90
36212;DHT22;22247;48.586;13.492;2023-08-12T04:17:45;12.00;99.90
36212;DHT22;22247;48.586;13.492;2023-08-12T04:20:10;12.10;99.90
36212;DHT22;22247;48.586;13.492;2023-08-12T04:22:34;12.20;99.90
36212;DHT22;22247;48.586;13.492;2023-08-12T04:25:02;12.00;99.90
36212;DHT22;22247;48.586;13.492;2023-08-12T04:27:27;12.00;99.90
36212;DHT22;22247;48.586;13.492;2023-08-12T04:29:51;12.10;99.90
36212;DHT22;22247;48.586;13.492;2023-08-12T04:32:16;12.60;99.90
36212;DHT22;22247;48.586;13.492;2023-08-12T04:34:44;12.00;99.90
36212;DHT22;22247;48.586;13.492;2023-08-12T04:37:08;12.70;99.90
36212;DHT22;22247;48.586;13.492;2023-08-12T04:39:33;12.30;99.90
36212;DHT22;22247;48.586;13.492;2023-08-12T04:41:57;12.00;99.90
36212;DHT22;22247;48.586;13.492;2023-08-12T04:44:22;12.90;99.90
36212;DHT22;22247;48.586;13.492;2023-08-12T04:46:47;12.70;99.90
36212;DHT22;22247;48.586;13.492;2023-08-12T04:49:11;13.10;99.90
36212;DHT22;22247;48.586;13.492;2023-08-12T04:51:36;12.70;99.90
36212;DHT22;22247;48.586;13.492;2023-08-12T04:54:00;13.10;99.90
36212;DHT22;22247;48.586;13.492;2023-08-12T04:56:26;13.20;99.90
36212;DHT22;22247;48.586;13.492;2023-08-12T04:58:53;12.60;99.90
36212;DHT22;22247;48.586;13.492;2023-08-12T05:01:17;12.90;99.90
36212;DHT22;22247;48.586;13.492;2023-08-12T05:03:42;12.00;99.90
36212;DHT22;22247;48.586;13.492;2023-08-12T05:06:11;12.90;99.90
36212;DHT22;22247;48.586;13.492;2023-08-12T05:08:36;12.80;99.90
36212;DHT22;22247;48.586;13.492;2023-08-12T05:11:00;12.90;99.90
36212;DHT22;22247;48.586;13.492;2023-08-12T05:13:25;13.00;99.90
36212;DHT22;22247;48.586;13.492;2023-08-12T05:15:49;13.50;99.90
36212;DHT22;22247;48.586;13.492;2023-08-12T05:18:15;13.30;99.90
36212;DHT22;22247;48.586;13.492;2023-08-12T05:20:40;13.80;99.90
36212;DHT22;22247;48.586;13.492;2023-08-12T05:23:06;13.40;99.90
36212;DHT22;22247;48.586;13.492;2023-08-12T05:25:30;13.70;99.90
36212;DHT22;22247;48.586;13.492;2023-08-12T05:27:55;13.60;99.90
36212;DHT22;22247;48.586;13.492;2023-08-12T05:30:19;13.70;99.90
36212;DHT22;22247;48.586;13.492;2023-08-12T05:32:44;14.80;99.90
36212;DHT22;22247;48.586;13.492;2023-08-12T05:35:08;14.20;99.90
36212;DHT22;22247;48.586;13.492;2023-08-12T05:39:58;15.20;99.90
36212;DHT22;22247;48.586;13.492;2023-08-12T05:42:25;13.80;99.90
36212;DHT22;22247;48.586;13.492;2023-08-12T05:44:49;15.00;99.90
36212;DHT22;22247;48.586;13.492;2023-08-12T05:47:14;15.00;99.90
36212;DHT22;22247;48.586;13.492;2023-08-12T05:49:39;15.60;99.90
36212;DHT22;22247;48.586;13.492;2023-08-12T05:52:03;16.10;99.90
36212;DHT22;22247;48.586;13.492;2023-08-12T16:20:22;31.90;76.10
36212;DHT22;22247;48.586;13.492;2023-08-12T16:22:49;31.00;75.20
36212;DHT22;22247;48.586;13.492;2023-08-12T16:34:55;28.00;93.60
36212;DHT22;22247;48.586;13.492;2023-08-12T16:37:25;27.80;87.80
36212;DHT22;22247;48.586;13.492;2023-08-12T16:39:56;27.30;93.40
36212;DHT22;22247;48.586;13.492;2023-08-12T16:47:28;29.00;87.20
36212;DHT22;22247;48.586;13.492;2023-08-12T16:49:55;28.90;96.20
36212;DHT22;22247;48.586;13.492;2023-08-12T16:52:22;27.80;96.90
36212;DHT22;22247;48.586;13.492;2023-08-12T16:55:04;28.40;91.00
36212;DHT22;22247;48.586;13.492;2023-08-12T16:57:35;28.00;94.80
36212;DHT22;22247;48.586;13.492;2023-08-12T17:00:05;28.90;90.30
36212;DHT22;22247;48.586;13.492;2023-08-12T17:04:55;27.90;94.00
36212;DHT22;22247;48.586;13.492;2023-08-12T17:14:52;28.50;95.20
36212;DHT22;22247;48.586;13.492;2023-08-12T17:19:44;27.40;99.70
36212;DHT22;22247;48.586;13.492;2023-08-12T17:22:09;27.20;99.50
36212;DHT22;22247;48.586;13.492;2023-08-12T17:24:34;26.30;99.90
36212;DHT22;22247;48.586;13.492;2023-08-12T17:26:58;26.00;96.00
36212;DHT22;22247;48.586;13.492;2023-08-12T17:29:23;24.70;99.90
36212;DHT22;22247;48.586;13.492;2023-08-12T17:31:57;25.20;99.90
36212;DHT22;22247;48.586;13.492;2023-08-12T17:34:24;24.70;99.90
36212;DHT22;22247;48.586;13.492;2023-08-12T17:36:49;24.80;99.90
36212;DHT22;22247;48.586;13.492;2023-08-12T17:39:22;24.20;99.90
36212;DHT22;22247;48.586;13.492;2023-08-12T17:47:36;24.10;99.90
36212;DHT22;22247;48.586;13.492;2023-08-12T17:54:54;22.30;99.90
36212;DHT22;22247;48.586;13.492;2023-08-12T17:57:18;22.30;99.90
36212;DHT22;22247;48.586;13.492;2023-08-12T18:02:08;22.50;99.90
36212;DHT22;22247;48.586;13.492;2023-08-12T18:04:33;22.20;99.90
36212;DHT22;22247;48.586;13.492;2023-08-12T18:06:57;23.20;99.90
36212;DHT22;22247;48.586;13.492;2023-08-12T18:09:23;23.60;99.90
36212;DHT22;22247;48.586;13.492;2023-08-12T18:11:50;22.90;99.90
36212;DHT22;22247;48.586;13.492;2023-08-12T18:14:15;22.70;99.90
36212;DHT22;22247;48.586;13.492;2023-08-12T18:17:27;23.10;99.90
36212;DHT22;22247;48.586;13.492;2023-08-12T18:19:54;22.90;99.90
36212;DHT22;22247;48.586;13.492;2023-08-12T18:27:13;23.10;99.90
36212;DHT22;22247;48.586;13.492;2023-08-12T18:29:38;24.10;99.90
36212;DHT22;22247;48.586;13.492;2023-08-12T18:32:06;22.80;99.90
36212;DHT22;22247;48.586;13.492;2023-08-12T18:36:55;23.80;99.90
36212;DHT22;22247;48.586;13.492;2023-08-12T18:39:21;21.30;99.90
36212;DHT22;22247;48.586;13.492;2023-08-12T18:41:48;22.00;99.90
36212;DHT22;22247;48.586;13.492;2023-08-12T18:49:05;22.10;99.90
36212;DHT22;22247;48.586;13.492;2023-08-12T18:51:29;22.80;99.90
36212;DHT22;22247;48.586;13.492;2023-08-12T18:56:19;22.30;99.90
36212;DHT22;22247;48.586;13.492;2023-08-12T18:58:44;22.40;99.90
36212;DHT22;22247;48.586;13.492;2023-08-12T19:01:08;22.40;99.90
36212;DHT22;22247;48.586;13.492;2023-08-12T19:08:26;22.20;99.90
36212;DHT22;22247;48.586;13.492;2023-08-12T19:10:55;21.40;99.90
36212;DHT22;22247;48.586;13.492;2023-08-12T19:13:20;21.80;99.90
36212;DHT22;22247;48.586;13.492;2023-08-12T19:15:46;21.90;99.90
36212;DHT22;22247;48.586;13.492;2023-08-12T19:18:11;22.20;99.90
36212;DHT22;22247;48.586;13.492;2023-08-12T19:20:36;20.90;99.90
36212;DHT22;22247;48.586;13.492;2023-08-12T19:23:00;22.30;99.90
36212;DHT22;22247;48.586;13.492;2023-08-12T19:25:27;21.60;99.90
36212;DHT22;22247;48.586;13.492;2023-08-12T19:32:53;20.20;99.90
36212;DHT22;22247;48.586;13.492;2023-08-12T19:44:59;21.20;99.90
36212;DHT22;22247;48.586;13.492;2023-08-12T19:52:14;20.20;99.90
36212;DHT22;22247;48.586;13.492;2023-08-12T19:55:23;20.40;99.90
36212;DHT22;22247;48.586;13.492;2023-08-12T20:15:59;20.20;99.90
36212;DHT22;22247;48.586;13.492;2023-08-12T20:55:28;19.50;99.90
36212;DHT22;22247;48.586;13.492;2023-08-12T21:01:38;19.30;99.90
36212;DHT22;22247;48.586;13.492;2023-08-12T21:04:09;19.20;99.90
36212;DHT22;22247;48.586;13.492;2023-08-12T21:06:45;19.30;99.90
36212;DHT22;22247;48.586;13.492;2023-08-12T21:11:59;19.00;99.90
36212;DHT22;22247;48.586;13.492;2023-08-12T21:14:30;19.20;99.90
36212;DHT22;22247;48.586;13.492;2023-08-12T21:20:20;18.80;99.90
36212;DHT22;22247;48.586;13.492;2023-08-12T21:22:45;19.30;99.90
36212;DHT22;22247;48.586;13.492;2023-08-12T21:25:30;19.40;99.90
36212;DHT22;22247;48.586;13.492;2023-08-12T21:28:03;22.20;99.90
36212;DHT22;22247;48.586;13.492;2023-08-12T21:30:57;19.50;99.90
36212;DHT22;22247;48.586;13.492;2023-08-12T21:33:41;19.50;99.90
36212;DHT22;22247;48.586;13.492;2023-08-12T21:36:20;19.30;99.90
36212;DHT22;22247;48.586;13.492;2023-08-12T21:41:40;19.50;99.90
36212;DHT22;22247;48.586;13.492;2023-08-12T21:44:54;19.40;99.90
36212;DHT22;22247;48.586;13.492;2023-08-12T21:47:47;19.30;99.90
36212;DHT22;22247;48.586;13.492;2023-08-12T21:54:30;18.90;99.90
36212;DHT22;22247;48.586;13.492;2023-08-12T21:57:18;19.00;99.90
36212;DHT22;22247;48.586;13.492;2023-08-12T22:00:01;20.00;99.90
36212;DHT22;22247;48.586;13.492;2023-08-12T22:05:37;18.70;99.90
36212;DHT22;22247;48.586;13.492;2023-08-12T23:01:34;18.00;99.90
36212;DHT22;22247;48.586;13.492;2023-08-12T23:07:52;18.00;99.90
36212;DHT22;22247;48.586;13.492;2023-08-12T23:14:12;17.90;99.90
